Time;durP1;ratioP1;P1;durP2;ratioP2;P2;SDS_P1;SDS_P2;PMS_P1;PMS_P2;Temp;Humidity;BMP_temperature;BMP_pressure;BME280_temperature;BME280_humidity;BME280_pressure;Samples;Min_cycle;Max_cycle;Signal;HPM_P1;HPM_P2
2021/05/13 00:01:15;;;;;;;0.30;0.30;;;;;;;;;;5071580;28;20425;-73
2021/05/13 00:03:41;;;;;;;0.28;0.20;;;;;;;;;;5090243;28;20097;-73
2021/05/13 00:06:07;;;;;;;0.50;0.28;;;;;;;;;;5090560;28;20043;-73
2021/05/13 00:08:33;;;;;;;0.25;0.25;;;;;;;;;;5090809;28;20024;-73
2021/05/13 00:11:06;;;;;;;0.50;0.30;;;;;;;;;;5090668;28;20076;-73
2021/05/13 00:13:33;;;;;;;0.20;0.20;;;;;;;;;;5090422;28;20032;-73
2021/05/13 00:16:00;;;;;;;0.68;0.40;;;;;;;;;;5090772;28;20028;-73
2021/05/13 00:18:27;;;;;;;0.20;0.20;;;;;;;;;;5090107;28;20032;-73
2021/05/13 00:20:53;;;;;;;1.70;0.30;;;;;;;;;;5090153;28;20044;-73
2021/05/13 00:23:20;;;;;;;0.40;0.20;;;;;;;;;;5089625;28;20024;-73
2021/05/13 00:25:51;;;;;;;0.25;0.25;;;;;;;;;;5090647;28;20044;-73
2021/05/13 00:28:23;;;;;;;0.28;0.28;;;;;;;;;;5090054;28;20038;-73
2021/05/13 00:30:49;;;;;;;0.22;0.20;;;;;;;;;;5090078;28;20024;-73
2021/05/13 00:33:16;;;;;;;1.15;0.30;;;;;;;;;;5092252;28;20032;-73
2021/05/13 00:35:42;;;;;;;0.43;0.35;;;;;;;;;;5094545;28;20027;-73
2021/05/13 00:38:08;;;;;;;1.60;0.80;;;;;;;;;;5093898;28;20486;-74
2021/05/13 00:40:34;;;;;;;0.40;0.30;;;;;;;;;;5094187;28;20028;-74
2021/05/13 00:43:01;;;;;;;0.20;0.20;;;;;;;;;;5093908;28;20103;-73
2021/05/13 00:45:28;;;;;;;0.43;0.25;;;;;;;;;;5093802;28;20057;-73
2021/05/13 00:50:26;;;;;;;0.30;0.22;;;;;;;;;;5086972;28;20067;-73
2021/05/13 00:52:52;;;;;;;0.30;0.30;;;;;;;;;;5073496;28;20040;-73
2021/05/13 00:55:19;;;;;;;0.77;0.30;;;;;;;;;;5073452;28;20032;-73
2021/05/13 00:57:48;;;;;;;0.20;0.20;;;;;;;;;;5073763;28;20509;-73
2021/05/13 01:03:01;;;;;;;0.50;0.45;;;;;;;;;;5073155;28;20045;-73
2021/05/13 01:05:28;;;;;;;0.20;0.20;;;;;;;;;;5072739;28;20036;-73
2021/05/13 01:07:56;;;;;;;0.38;0.35;;;;;;;;;;5073645;28;20406;-73
2021/05/13 01:10:24;;;;;;;0.10;0.10;;;;;;;;;;5072688;28;20025;-73
2021/05/13 01:12:50;;;;;;;0.20;0.20;;;;;;;;;;5072725;28;20071;-73
2021/05/13 01:15:27;;;;;;;0.38;0.38;;;;;;;;;;5072736;28;20070;-73
2021/05/13 01:18:27;;;;;;;0.95;0.55;;;;;;;;;;5073762;28;20020;-73
2021/05/13 01:20:47;;;;;;;0.85;0.40;;;;;;;;;;5069031;28;20033;-73
2021/05/13 01:23:13;;;;;;;0.15;0.15;;;;;;;;;;5071803;28;20033;-73
2021/05/13 01:25:44;;;;;;;0.25;0.25;;;;;;;;;;5072962;28;20032;-73
2021/05/13 01:28:10;;;;;;;0.35;0.20;;;;;;;;;;5072705;28;20384;-73
2021/05/13 01:30:36;;;;;;;0.25;0.22;;;;;;;;;;5073005;28;20028;-73
2021/05/13 01:33:03;;;;;;;0.22;0.22;;;;;;;;;;5072418;28;20033;-73
2021/05/13 01:35:29;;;;;;;0.30;0.25;;;;;;;;;;5072368;28;20028;-73
2021/05/13 01:38:08;;;;;;;0.20;0.20;;;;;;;;;;5055134;28;20035;-73
2021/05/13 01:40:35;;;;;;;0.40;0.32;;;;;;;;;;5072686;28;20086;-73
2021/05/13 01:43:01;;;;;;;1.65;0.45;;;;;;;;;;5072446;28;20024;-73
2021/05/13 01:45:27;;;;;;;0.20;0.20;;;;;;;;;;5071716;28;20039;-73
2021/05/13 01:48:01;;;;;;;0.75;0.38;;;;;;;;;;5072476;28;20565;-73
2021/05/13 01:50:27;;;;;;;1.00;0.68;;;;;;;;;;5078455;28;20036;-73
2021/05/13 01:52:53;;;;;;;1.40;0.38;;;;;;;;;;5092357;28;20042;-73
2021/05/13 01:55:20;;;;;;;0.75;0.20;;;;;;;;;;5092730;28;20020;-73
2021/05/13 01:57:46;;;;;;;0.35;0.30;;;;;;;;;;5092764;28;20026;-73
2021/05/13 02:00:12;;;;;;;0.32;0.20;;;;;;;;;;5092101;28;20028;-73
2021/05/13 02:02:38;;;;;;;1.00;0.38;;;;;;;;;;5092413;28;20028;-73
2021/05/13 02:05:04;;;;;;;0.40;0.40;;;;;;;;;;5092082;28;20077;-73
2021/05/13 02:07:30;;;;;;;0.52;0.38;;;;;;;;;;5092187;28;20555;-73
2021/05/13 02:09:56;;;;;;;0.80;0.20;;;;;;;;;;5092759;28;20356;-73
2021/05/13 02:12:22;;;;;;;0.30;0.30;;;;;;;;;;5091180;28;20406;-73
2021/05/13 02:14:48;;;;;;;0.55;0.25;;;;;;;;;;5092262;28;20034;-73
2021/05/13 02:17:14;;;;;;;0.32;0.28;;;;;;;;;;5091560;28;20101;-73
2021/05/13 02:19:40;;;;;;;0.50;0.50;;;;;;;;;;5092211;28;20032;-73
2021/05/13 02:22:06;;;;;;;0.93;0.30;;;;;;;;;;5091671;28;20024;-73
2021/05/13 02:24:33;;;;;;;1.27;0.38;;;;;;;;;;5092363;28;20092;-73
2021/05/13 02:26:59;;;;;;;0.45;0.45;;;;;;;;;;5091909;28;20060;-73
2021/05/13 02:29:25;;;;;;;0.20;0.20;;;;;;;;;;5091017;28;20384;-73
2021/05/13 02:31:51;;;;;;;0.28;0.28;;;;;;;;;;5091797;28;20101;-73
2021/05/13 02:34:17;;;;;;;0.50;0.40;;;;;;;;;;5091113;28;20501;-73
2021/05/13 02:36:43;;;;;;;0.57;0.57;;;;;;;;;;5091665;28;20372;-73
2021/05/13 02:39:09;;;;;;;0.20;0.20;;;;;;;;;;5091176;28;20486;-73
2021/05/13 02:41:35;;;;;;;0.28;0.20;;;;;;;;;;5091780;28;20020;-73
2021/05/13 02:44:01;;;;;;;0.17;0.17;;;;;;;;;;5092101;28;20032;-73
2021/05/13 02:46:27;;;;;;;0.25;0.25;;;;;;;;;;5091356;28;20035;-73
2021/05/13 02:48:53;;;;;;;0.10;0.10;;;;;;;;;;5091444;28;20643;-74
2021/05/13 02:51:20;;;;;;;0.28;0.28;;;;;;;;;;5076302;28;20107;-73
2021/05/13 02:53:46;;;;;;;0.50;0.50;;;;;;;;;;5071112;28;20486;-73
2021/05/13 02:56:12;;;;;;;0.38;0.38;;;;;;;;;;5070865;28;20449;-73
2021/05/13 02:58:38;;;;;;;0.30;0.30;;;;;;;;;;5071243;28;20153;-73
2021/05/13 03:03:59;;;;;;;0.25;0.25;;;;;;;;;;5057741;28;20056;-73
2021/05/13 03:06:26;;;;;;;0.25;0.25;;;;;;;;;;5070463;28;20101;-73
2021/05/13 03:08:56;;;;;;;0.10;0.10;;;;;;;;;;5070840;28;20035;-73
2021/05/13 03:11:23;;;;;;;0.30;0.15;;;;;;;;;;5069831;28;20459;-73
2021/05/13 03:13:52;;;;;;;0.13;0.13;;;;;;;;;;5071074;28;20032;-73
2021/05/13 03:16:18;;;;;;;2.17;0.30;;;;;;;;;;5070694;28;20360;-73
2021/05/13 03:18:49;;;;;;;0.15;0.15;;;;;;;;;;5070975;28;20024;-73
2021/05/13 03:23:55;;;;;;;0.25;0.25;;;;;;;;;;5070813;28;20495;-73
2021/05/13 03:26:33;;;;;;;;;;;;;;;;;;5071006;28;20024;-73
2021/05/13 03:28:59;;;;;;;0.30;0.30;;;;;;;;;;5071191;28;19904;-73
2021/05/13 03:31:25;;;;;;;0.20;0.20;;;;;;;;;;5070078;28;20036;-73
2021/05/13 03:33:51;;;;;;;0.45;0.28;;;;;;;;;;5070259;28;20502;-73
2021/05/13 03:36:17;;;;;;;0.20;0.20;;;;;;;;;;5070182;28;20502;-73
2021/05/13 03:38:43;;;;;;;0.20;0.20;;;;;;;;;;5071089;28;20033;-73
2021/05/13 03:41:09;;;;;;;0.35;0.35;;;;;;;;;;5069830;28;20043;-73
2021/05/13 03:43:35;;;;;;;0.25;0.20;;;;;;;;;;5070376;28;20078;-73
2021/05/13 03:46:01;;;;;;;0.22;0.22;;;;;;;;;;5070960;28;20024;-73
2021/05/13 03:48:27;;;;;;;0.30;0.30;;;;;;;;;;5069889;28;20549;-73
2021/05/13 03:50:53;;;;;;;0.20;0.20;;;;;;;;;;5079862;28;20364;-73
2021/05/13 03:53:20;;;;;;;0.28;0.28;;;;;;;;;;5089891;28;20059;-73
2021/05/13 03:55:50;;;;;;;0.25;0.25;;;;;;;;;;5091057;28;20550;-73
2021/05/13 03:58:17;;;;;;;0.52;0.20;;;;;;;;;;5089758;28;20490;-73
2021/05/13 04:03:18;;;;;;;1.23;0.20;;;;;;;;;;5089394;28;20032;-73
2021/05/13 04:05:44;;;;;;;0.22;0.22;;;;;;;;;;5090305;28;20063;-73
2021/05/13 04:08:10;;;;;;;0.25;0.25;;;;;;;;;;5071397;28;20434;-73
2021/05/13 04:10:36;;;;;;;1.02;0.57;;;;;;;;;;5090656;28;20031;-73
2021/05/13 04:13:05;;;;;;;0.52;0.30;;;;;;;;;;5089931;28;20036;-73
2021/05/13 04:15:31;;;;;;;0.52;0.20;;;;;;;;;;5090469;28;20043;-73
2021/05/13 04:17:57;;;;;;;0.30;0.30;;;;;;;;;;5090959;28;20183;-73
2021/05/13 04:20:23;;;;;;;3.30;1.00;;;;;;;;;;5090290;28;20512;-73
2021/05/13 04:22:49;;;;;;;0.38;0.30;;;;;;;;;;5071731;28;20488;-73
2021/05/13 04:25:15;;;;;;;0.20;0.20;;;;;;;;;;5090136;28;20031;-73
2021/05/13 04:27:42;;;;;;;0.30;0.28;;;;;;;;;;5090765;28;20494;-73
2021/05/13 04:30:08;;;;;;;0.15;0.15;;;;;;;;;;5090213;28;20036;-73
2021/05/13 04:32:34;;;;;;;0.25;0.20;;;;;;;;;;5089842;28;20032;-73
2021/05/13 04:35:01;;;;;;;0.10;0.10;;;;;;;;;;5090832;28;20028;-73
2021/05/13 04:37:27;;;;;;;0.47;0.45;;;;;;;;;;5089559;28;20038;-73
2021/05/13 04:39:53;;;;;;;0.10;0.10;;;;;;;;;;5090307;28;20032;-73
2021/05/13 04:42:19;;;;;;;0.73;0.17;;;;;;;;;;5089337;28;20031;-73
2021/05/13 04:44:46;;;;;;;1.52;0.20;;;;;;;;;;5072024;28;20420;-73
2021/05/13 04:49:56;;;;;;;0.60;0.20;;;;;;;;;;5088481;28;20067;-73
2021/05/13 04:52:24;;;;;;;0.20;0.20;;;;;;;;;;5068584;28;20041;-73
2021/05/13 04:54:51;;;;;;;0.35;0.20;;;;;;;;;;5070164;28;20021;-73
2021/05/13 04:57:18;;;;;;;0.35;0.20;;;;;;;;;;5069246;28;20082;-73
2021/05/13 04:59:44;;;;;;;0.60;0.30;;;;;;;;;;5070455;28;20028;-72
2021/05/13 05:02:10;;;;;;;0.63;0.20;;;;;;;;;;5069049;28;20029;-73
2021/05/13 05:04:37;;;;;;;0.22;0.22;;;;;;;;;;5069300;28;20024;-73
2021/05/13 05:07:03;;;;;;;0.10;0.10;;;;;;;;;;5070055;28;20078;-73
2021/05/13 05:09:29;;;;;;;0.40;0.20;;;;;;;;;;5069481;28;20039;-73
2021/05/13 05:11:55;;;;;;;0.20;0.20;;;;;;;;;;5069741;28;20041;-73
2021/05/13 05:14:21;;;;;;;0.47;0.35;;;;;;;;;;5068809;28;20086;-72
2021/05/13 05:16:47;;;;;;;0.35;0.30;;;;;;;;;;5070082;28;20032;-73
2021/05/13 05:19:13;;;;;;;0.13;0.13;;;;;;;;;;5070170;28;20029;-73
2021/05/13 05:21:39;;;;;;;0.20;0.20;;;;;;;;;;5073337;28;20103;-73
2021/05/13 05:24:05;;;;;;;0.10;0.10;;;;;;;;;;5073143;28;20028;-73
2021/05/13 05:26:32;;;;;;;1.30;0.32;;;;;;;;;;5073107;28;20569;-73
2021/05/13 05:28:58;;;;;;;0.35;0.30;;;;;;;;;;5073010;28;20107;-73
2021/05/13 05:31:24;;;;;;;0.63;0.30;;;;;;;;;;5072232;28;20036;-73
2021/05/13 05:33:50;;;;;;;1.90;0.85;;;;;;;;;;5072910;28;20032;-73
2021/05/13 05:36:16;;;;;;;0.20;0.20;;;;;;;;;;5072471;28;20453;-73
2021/05/13 05:38:42;;;;;;;0.47;0.38;;;;;;;;;;5073020;28;20032;-72
2021/05/13 05:41:08;;;;;;;0.52;0.20;;;;;;;;;;5072307;28;20095;-73
2021/05/13 05:43:34;;;;;;;0.40;0.40;;;;;;;;;;5072978;28;20020;-73
2021/05/13 05:46:00;;;;;;;0.43;0.35;;;;;;;;;;5072810;28;20093;-73
2021/05/13 05:48:26;;;;;;;0.10;0.10;;;;;;;;;;5071963;28;20059;-72
2021/05/13 05:50:52;;;;;;;0.10;0.10;;;;;;;;;;5082450;28;20085;-73
2021/05/13 05:53:18;;;;;;;0.52;0.20;;;;;;;;;;5073679;28;20034;-73
2021/05/13 05:55:44;;;;;;;0.25;0.25;;;;;;;;;;5092459;28;20043;-72
2021/05/13 05:58:10;;;;;;;0.90;0.40;;;;;;;;;;5091623;28;20020;-73
2021/05/13 06:00:37;;;;;;;0.20;0.17;;;;;;;;;;5092307;28;20112;-72
2021/05/13 06:03:03;;;;;;;0.30;0.30;;;;;;;;;;5091848;28;20500;-73
2021/05/13 06:05:30;;;;;;;0.30;0.30;;;;;;;;;;5091952;28;20032;-72
2021/05/13 06:07:57;;;;;;;0.30;0.30;;;;;;;;;;5091837;28;20130;-72
2021/05/13 06:10:23;;;;;;;0.30;0.30;;;;;;;;;;5091988;28;20536;-73
2021/05/13 06:12:49;;;;;;;0.68;0.40;;;;;;;;;;5091531;28;20028;-72
2021/05/13 06:15:16;;;;;;;0.25;0.25;;;;;;;;;;5091554;28;20028;-72
2021/05/13 06:17:43;;;;;;;0.20;0.20;;;;;;;;;;5091858;28;20028;-72
2021/05/13 06:20:16;;;;;;;0.52;0.40;;;;;;;;;;5091676;28;20382;-73
2021/05/13 06:22:42;;;;;;;0.30;0.30;;;;;;;;;;5091915;28;20050;-72
2021/05/13 06:25:08;;;;;;;0.22;0.15;;;;;;;;;;5091533;28;20436;-73
2021/05/13 06:27:35;;;;;;;0.32;0.32;;;;;;;;;;5091850;28;20198;-72
2021/05/13 06:30:01;;;;;;;0.43;0.35;;;;;;;;;;5090884;28;20399;-72
2021/05/13 06:32:27;;;;;;;0.63;0.60;;;;;;;;;;5090655;28;20089;-72
2021/05/13 06:34:53;;;;;;;0.55;0.55;;;;;;;;;;5091588;28;20024;-72
2021/05/13 06:37:19;;;;;;;0.45;0.38;;;;;;;;;;5090779;28;20024;-72
2021/05/13 06:39:45;;;;;;;0.63;0.63;;;;;;;;;;5091252;28;20380;-72
2021/05/13 06:42:11;;;;;;;0.68;0.57;;;;;;;;;;5090349;28;20157;-72
2021/05/13 06:44:37;;;;;;;0.75;0.40;;;;;;;;;;5091538;28;20093;-72
2021/05/13 06:47:03;;;;;;;0.30;0.30;;;;;;;;;;5091558;28;20024;-72
2021/05/13 06:49:29;;;;;;;0.13;0.13;;;;;;;;;;5090271;28;20046;-72
2021/05/13 06:51:55;;;;;;;0.20;0.20;;;;;;;;;;5072144;28;20410;-72
2021/05/13 06:54:21;;;;;;;0.35;0.35;;;;;;;;;;5070310;28;20032;-72
2021/05/13 06:56:48;;;;;;;0.35;0.35;;;;;;;;;;5071206;28;20116;-73
2021/05/13 06:59:15;;;;;;;0.30;0.30;;;;;;;;;;5070307;28;20056;-73
2021/05/13 07:01:41;;;;;;;0.20;0.20;;;;;;;;;;5070303;28;20040;-72
2021/05/13 07:04:07;;;;;;;0.47;0.47;;;;;;;;;;5070087;28;20501;-72
2021/05/13 07:06:34;;;;;;;0.73;0.30;;;;;;;;;;5070197;28;20026;-72
2021/05/13 07:09:00;;;;;;;0.20;0.20;;;;;;;;;;5070839;28;20031;-72
2021/05/13 07:11:26;;;;;;;0.52;0.43;;;;;;;;;;5069233;28;20064;-72
2021/05/13 07:13:52;;;;;;;0.20;0.20;;;;;;;;;;5070039;28;20104;-72
2021/05/13 07:16:18;;;;;;;0.55;0.52;;;;;;;;;;5070083;28;20032;-73
2021/05/13 07:18:44;;;;;;;0.20;0.20;;;;;;;;;;5070441;28;20033;-73
2021/05/13 07:21:12;;;;;;;0.20;0.20;;;;;;;;;;5069766;28;20025;-72
2021/05/13 07:23:38;;;;;;;1.20;1.13;;;;;;;;;;5069524;28;20066;-72
2021/05/13 07:26:04;;;;;;;0.70;0.70;;;;;;;;;;5069538;28;20394;-73
2021/05/13 07:28:30;;;;;;;0.20;0.20;;;;;;;;;;5069960;28;20551;-72
2021/05/13 07:30:56;;;;;;;0.40;0.40;;;;;;;;;;5069904;28;20025;-72
2021/05/13 07:33:23;;;;;;;1.25;0.73;;;;;;;;;;5050899;28;20902;-72
2021/05/13 07:35:49;;;;;;;0.40;0.30;;;;;;;;;;5070087;28;20058;-72
2021/05/13 07:38:15;;;;;;;0.55;0.40;;;;;;;;;;5069098;28;20138;-72
2021/05/13 07:40:41;;;;;;;1.27;0.30;;;;;;;;;;5069983;28;20032;-72
2021/05/13 07:43:08;;;;;;;0.47;0.30;;;;;;;;;;5068412;28;20056;-73
2021/05/13 07:45:34;;;;;;;1.38;0.20;;;;;;;;;;5069960;28;20029;-73
2021/05/13 07:48:00;;;;;;;0.60;0.40;;;;;;;;;;5069659;28;20407;-73
2021/05/13 07:50:27;;;;;;;0.80;0.25;;;;;;;;;;5075285;28;20028;-73
2021/05/13 07:52:53;;;;;;;0.20;0.20;;;;;;;;;;5089513;28;20526;-72
2021/05/13 07:55:19;;;;;;;0.45;0.45;;;;;;;;;;5089768;28;20103;-73
2021/05/13 07:57:47;;;;;;;0.68;0.50;;;;;;;;;;5089951;28;20028;-72
2021/05/13 08:00:13;;;;;;;0.90;0.32;;;;;;;;;;5088013;28;20043;-73
2021/05/13 08:02:40;;;;;;;0.40;0.30;;;;;;;;;;5089467;28;20046;-73
2021/05/13 08:05:07;;;;;;;0.77;0.50;;;;;;;;;;5089362;28;20478;-73
2021/05/13 08:07:33;;;;;;;0.30;0.30;;;;;;;;;;5089677;28;20476;-73
2021/05/13 08:09:59;;;;;;;0.40;0.30;;;;;;;;;;5089651;28;20613;-72
2021/05/13 08:12:25;;;;;;;0.20;0.20;;;;;;;;;;5088574;28;20379;-73
2021/05/13 08:14:51;;;;;;;0.40;0.40;;;;;;;;;;5089360;28;20031;-73
2021/05/13 08:17:17;;;;;;;0.40;0.40;;;;;;;;;;5089208;28;20497;-73
2021/05/13 08:19:43;;;;;;;0.38;0.38;;;;;;;;;;5089479;28;20085;-73
2021/05/13 08:22:09;;;;;;;0.88;0.70;;;;;;;;;;5088467;28;20038;-73
2021/05/13 08:24:35;;;;;;;0.68;0.30;;;;;;;;;;5089329;28;20036;-73
2021/05/13 08:27:02;;;;;;;0.50;0.40;;;;;;;;;;5089443;28;20107;-73
2021/05/13 08:29:31;;;;;;;0.20;0.20;;;;;;;;;;5088982;28;20059;-73
2021/05/13 08:31:57;;;;;;;0.35;0.30;;;;;;;;;;5089477;28;20063;-73
2021/05/13 08:34:24;;;;;;;0.32;0.32;;;;;;;;;;5088443;28;20034;-73
2021/05/13 08:36:50;;;;;;;1.75;0.17;;;;;;;;;;5089505;28;20359;-73
2021/05/13 08:39:16;;;;;;;0.40;0.40;;;;;;;;;;5088557;28;20466;-73
2021/05/13 08:41:42;;;;;;;0.98;0.60;;;;;;;;;;5089526;28;20420;-73
2021/05/13 08:44:08;;;;;;;0.50;0.50;;;;;;;;;;5088713;28;20028;-73
2021/05/13 08:46:36;;;;;;;0.63;0.63;;;;;;;;;;5089496;28;20099;-73
2021/05/13 08:49:02;;;;;;;0.22;0.22;;;;;;;;;;5088966;28;20047;-73
2021/05/13 08:51:28;;;;;;;0.45;0.45;;;;;;;;;;5073450;28;20040;-73
2021/05/13 08:53:56;;;;;;;0.75;0.40;;;;;;;;;;5070877;28;20029;-73
2021/05/13 08:56:23;;;;;;;0.68;0.25;;;;;;;;;;5071855;28;20158;-73
2021/05/13 08:58:49;;;;;;;1.30;0.75;;;;;;;;;;5072922;28;20020;-73
2021/05/13 09:01:22;;;;;;;1.23;0.38;;;;;;;;;;5072060;28;20036;-73
2021/05/13 09:03:48;;;;;;;;;;;;;;;;;;5072966;28;20155;-73
2021/05/13 09:06:39;;;;;;;0.30;0.30;;;;;;;;;;5072224;28;19970;-73
2021/05/13 09:09:15;;;;;;;0.88;0.25;;;;;;;;;;5072371;28;20483;-73
2021/05/13 09:11:51;;;;;;;0.43;0.40;;;;;;;;;;5072491;28;20094;-73
2021/05/13 09:14:21;;;;;;;0.35;0.35;;;;;;;;;;5072336;28;20063;-73
2021/05/13 09:16:49;;;;;;;1.08;0.47;;;;;;;;;;5072642;28;20062;-73
2021/05/13 09:19:28;;;;;;;0.40;0.40;;;;;;;;;;5072101;28;20017;-73
2021/05/13 09:21:57;;;;;;;0.30;0.30;;;;;;;;;;5072508;28;20021;-73
2021/05/13 09:24:42;;;;;;;0.30;0.30;;;;;;;;;;5071972;28;20036;-73
2021/05/13 09:27:18;;;;;;;0.70;0.45;;;;;;;;;;5072163;28;20055;-73
2021/05/13 09:29:44;;;;;;;0.57;0.57;;;;;;;;;;5072548;28;20483;-73
2021/05/13 09:32:14;;;;;;;0.20;0.20;;;;;;;;;;5071438;28;20051;-73
2021/05/13 09:34:41;;;;;;;0.68;0.68;;;;;;;;;;5072133;28;20135;-73
2021/05/13 09:37:07;;;;;;;0.20;0.20;;;;;;;;;;5072164;28;20029;-73
2021/05/13 09:39:33;;;;;;;0.30;0.30;;;;;;;;;;5071820;28;20024;-73
2021/05/13 09:42:04;;;;;;;0.30;0.30;;;;;;;;;;5071638;28;20474;-73
2021/05/13 09:44:31;;;;;;;0.75;0.40;;;;;;;;;;5072249;28;20032;-73
2021/05/13 09:46:57;;;;;;;1.00;0.52;;;;;;;;;;5072363;28;20414;-73
2021/05/13 09:49:23;;;;;;;0.38;0.20;;;;;;;;;;5070779;28;20052;-73
2021/05/13 09:51:49;;;;;;;0.20;0.20;;;;;;;;;;5088969;28;20036;-73
2021/05/13 09:54:16;;;;;;;0.40;0.28;;;;;;;;;;5091737;28;20027;-73
2021/05/13 09:56:54;;;;;;;1.23;0.25;;;;;;;;;;5092358;28;20483;-73
2021/05/13 09:59:20;;;;;;;0.85;0.50;;;;;;;;;;5091263;28;20550;-73
2021/05/13 10:01:46;;;;;;;0.43;0.30;;;;;;;;;;5091843;28;20032;-73
2021/05/13 10:04:13;;;;;;;0.35;0.35;;;;;;;;;;5090616;28;20035;-73
2021/05/13 10:06:39;;;;;;;0.50;0.38;;;;;;;;;;5091579;28;20024;-73
2021/05/13 10:09:05;;;;;;;0.85;0.43;;;;;;;;;;5091763;28;20034;-73
2021/05/13 10:11:32;;;;;;;0.40;0.40;;;;;;;;;;5091405;28;20032;-73
2021/05/13 10:13:59;;;;;;;0.30;0.25;;;;;;;;;;5091594;28;20051;-73
2021/05/13 10:16:27;;;;;;;0.50;0.30;;;;;;;;;;5091007;28;20552;-73
2021/05/13 10:18:55;;;;;;;0.95;0.20;;;;;;;;;;5092250;28;20103;-73
2021/05/13 10:21:23;;;;;;;0.25;0.22;;;;;;;;;;5087812;28;20451;-73
2021/05/13 10:23:49;;;;;;;0.68;0.30;;;;;;;;;;5070675;28;20025;-73
2021/05/13 10:26:35;;;;;;;0.10;0.10;;;;;;;;;;5070417;28;20083;-73
2021/05/13 10:29:22;;;;;;;0.30;0.30;;;;;;;;;;5071372;28;20035;-73
2021/05/13 10:32:12;;;;;;;0.20;0.20;;;;;;;;;;5070374;28;20040;-73
2021/05/13 10:34:41;;;;;;;0.88;0.60;;;;;;;;;;5070624;28;20024;-73
2021/05/13 10:37:11;;;;;;;0.45;0.45;;;;;;;;;;5070806;28;20060;-73
2021/05/13 10:39:37;;;;;;;0.25;0.25;;;;;;;;;;5071183;28;20107;-73
2021/05/13 10:42:22;;;;;;;0.43;0.30;;;;;;;;;;5070017;28;20028;-73
2021/05/13 10:44:48;;;;;;;0.20;0.20;;;;;;;;;;5070974;28;20047;-73
2021/05/13 10:47:26;;;;;;;0.30;0.30;;;;;;;;;;5070004;28;20029;-73
2021/05/13 10:49:52;;;;;;;0.20;0.20;;;;;;;;;;5072223;28;20044;-73
2021/05/13 10:52:34;;;;;;;0.30;0.30;;;;;;;;;;5089912;28;20119;-73
2021/05/13 10:55:00;;;;;;;0.20;0.20;;;;;;;;;;5091190;28;20024;-73
2021/05/13 10:57:26;;;;;;;1.33;0.35;;;;;;;;;;5090546;28;20107;-73
2021/05/13 11:00:05;;;;;;;0.38;0.20;;;;;;;;;;5090825;28;20079;-73
2021/05/13 11:02:37;;;;;;;0.40;0.40;;;;;;;;;;5089628;28;20417;-73
2021/05/13 11:05:22;;;;;;;0.30;0.25;;;;;;;;;;5090803;28;20107;-73
2021/05/13 11:07:48;;;;;;;0.40;0.40;;;;;;;;;;5091065;28;20466;-73
2021/05/13 11:10:14;;;;;;;0.28;0.28;;;;;;;;;;5090260;28;20039;-73
2021/05/13 11:12:41;;;;;;;1.58;0.75;;;;;;;;;;5090135;28;20393;-73
2021/05/13 11:17:54;;;;;;;0.10;0.10;;;;;;;;;;5090727;28;20089;-73
2021/05/13 11:20:28;;;;;;;0.53;0.50;;;;;;;;;;5090296;28;20028;-73
2021/05/13 11:22:59;;;;;;;1.17;0.43;;;;;;;;;;5089979;28;20266;-73
2021/05/13 11:25:26;;;;;;;0.20;0.20;;;;;;;;;;5089515;28;20514;-73
2021/05/13 11:27:52;;;;;;;0.20;0.20;;;;;;;;;;5090420;28;20070;-73
2021/05/13 11:30:24;;;;;;;0.32;0.30;;;;;;;;;;5089954;28;20443;-73
2021/05/13 11:32:54;;;;;;;0.28;0.20;;;;;;;;;;5089775;28;20482;-73
2021/05/13 11:35:23;;;;;;;0.40;0.35;;;;;;;;;;5089627;28;20032;-73
2021/05/13 11:37:54;;;;;;;0.20;0.20;;;;;;;;;;5089979;28;20095;-73
2021/05/13 11:40:25;;;;;;;2.40;0.95;;;;;;;;;;5089651;28;20400;-73
2021/05/13 11:42:51;;;;;;;0.40;0.40;;;;;;;;;;5089749;28;20241;-73
2021/05/13 11:45:23;;;;;;;0.40;0.30;;;;;;;;;;5089067;28;20035;-73
2021/05/13 11:47:50;;;;;;;0.30;0.30;;;;;;;;;;5089819;28;20100;-73
2021/05/13 11:50:26;;;;;;;0.20;0.20;;;;;;;;;;5084990;28;20024;-73
2021/05/13 11:53:11;;;;;;;0.15;0.10;;;;;;;;;;5069571;28;20464;-73
2021/05/13 11:55:40;;;;;;;0.20;0.20;;;;;;;;;;5069490;28;20047;-73
2021/05/13 11:58:06;;;;;;;0.40;0.40;;;;;;;;;;5069413;28;20436;-73
2021/05/13 12:00:32;;;;;;;0.20;0.15;;;;;;;;;;5069715;28;20059;-73
2021/05/13 12:03:28;;;;;;;0.20;0.20;;;;;;;;;;5069794;28;20032;-73
2021/05/13 12:05:54;;;;;;;0.30;0.30;;;;;;;;;;5052176;28;20487;-73
2021/05/13 12:08:21;;;;;;;0.20;0.20;;;;;;;;;;5069015;28;20449;-73
2021/05/13 12:10:48;;;;;;;0.52;0.52;;;;;;;;;;5069792;28;20020;-73
2021/05/13 12:13:14;;;;;;;1.38;0.30;;;;;;;;;;5068839;28;20032;-73
2021/05/13 12:15:41;;;;;;;0.10;0.10;;;;;;;;;;5069552;28;20033;-73
2021/05/13 12:18:07;;;;;;;0.08;0.08;;;;;;;;;;5069723;28;20032;-74
2021/05/13 12:20:35;;;;;;;0.10;0.10;;;;;;;;;;5069535;28;20044;-73
2021/05/13 12:23:02;;;;;;;0.20;0.20;;;;;;;;;;5069883;28;20074;-73
2021/05/13 12:25:28;;;;;;;0.95;0.30;;;;;;;;;;5069403;28;20032;-73
2021/05/13 12:27:54;;;;;;;0.30;0.30;;;;;;;;;;5069995;28;20039;-73
2021/05/13 12:30:21;;;;;;;0.30;0.30;;;;;;;;;;5073120;28;20028;-73
2021/05/13 12:32:47;;;;;;;0.40;0.30;;;;;;;;;;5073265;28;20111;-73
2021/05/13 12:35:24;;;;;;;0.30;0.30;;;;;;;;;;5073324;28;20024;-73
2021/05/13 12:37:50;;;;;;;0.20;0.20;;;;;;;;;;5073691;28;20055;-73
2021/05/13 12:40:17;;;;;;;0.47;0.30;;;;;;;;;;5072968;28;20048;-73
2021/05/13 12:42:43;;;;;;;0.20;0.20;;;;;;;;;;5073323;28;20074;-73
2021/05/13 12:45:13;;;;;;;0.20;0.20;;;;;;;;;;5073110;28;20471;-74
2021/05/13 12:47:40;;;;;;;0.28;0.28;;;;;;;;;;5073152;28;21366;-74
2021/05/13 12:50:06;;;;;;;0.20;0.20;;;;;;;;;;5076137;28;20146;-74
2021/05/13 12:52:32;;;;;;;0.20;0.20;;;;;;;;;;5093116;28;20040;-74
2021/05/13 12:55:15;;;;;;;0.22;0.22;;;;;;;;;;5093873;28;20397;-73
2021/05/13 12:57:42;;;;;;;0.10;0.10;;;;;;;;;;5093562;28;20111;-73
2021/05/13 13:00:08;;;;;;;0.20;0.20;;;;;;;;;;5092287;28;20047;-73
2021/05/13 13:02:34;;;;;;;0.10;0.10;;;;;;;;;;5093022;28;20039;-73
2021/05/13 13:05:01;;;;;;;0.52;0.45;;;;;;;;;;5093722;28;20172;-73
2021/05/13 13:07:36;;;;;;;0.10;0.10;;;;;;;;;;5092521;28;20032;-73
2021/05/13 13:10:21;;;;;;;0.30;0.30;;;;;;;;;;5092950;28;20028;-73
2021/05/13 13:12:48;;;;;;;0.20;0.20;;;;;;;;;;5092840;28;20379;-73
2021/05/13 13:15:33;;;;;;;0.20;0.20;;;;;;;;;;5092515;28;20056;-74
2021/05/13 13:18:06;;;;;;;0.20;0.20;;;;;;;;;;5092794;28;20047;-73
2021/05/13 13:20:32;;;;;;;;;;;;;;;;;;5093106;28;20020;-73
2021/05/13 13:23:17;;;;;;;0.10;0.10;;;;;;;;;;5092652;28;20275;-73
2021/05/13 13:25:43;;;;;;;0.10;0.10;;;;;;;;;;5093223;28;20024;-73
2021/05/13 13:28:10;;;;;;;0.10;0.10;;;;;;;;;;5091992;28;20102;-74
2021/05/13 13:30:36;;;;;;;0.15;0.15;;;;;;;;;;5092025;28;20051;-73
2021/05/13 13:33:16;;;;;;;1.10;0.10;;;;;;;;;;5092518;28;20086;-73
2021/05/13 13:35:42;;;;;;;0.20;0.20;;;;;;;;;;5092832;28;20024;-74
2021/05/13 13:38:10;;;;;;;0.40;0.30;;;;;;;;;;5091792;28;20379;-73
2021/05/13 13:40:37;;;;;;;0.10;0.10;;;;;;;;;;5091510;28;20347;-73
2021/05/13 13:43:03;;;;;;;0.40;0.40;;;;;;;;;;5092310;28;20016;-73
2021/05/13 13:45:29;;;;;;;0.45;0.40;;;;;;;;;;5091915;28;20078;-74
2021/05/13 13:47:57;;;;;;;0.20;0.20;;;;;;;;;;5091927;28;20048;-73
2021/05/13 13:50:23;;;;;;;0.22;0.20;;;;;;;;;;5086110;28;20361;-74
2021/05/13 13:52:49;;;;;;;0.20;0.10;;;;;;;;;;5053596;28;20372;-73
2021/05/13 13:55:16;;;;;;;0.10;0.10;;;;;;;;;;5071203;28;20028;-74
2021/05/13 13:57:42;;;;;;;0.10;0.10;;;;;;;;;;5071880;28;20477;-73
2021/05/13 14:00:09;;;;;;;0.10;0.10;;;;;;;;;;5071337;28;20024;-73
2021/05/13 14:02:37;;;;;;;0.80;0.30;;;;;;;;;;5071549;28;20020;-73
2021/05/13 14:05:03;;;;;;;0.20;0.20;;;;;;;;;;5072055;28;20391;-73
2021/05/13 14:07:29;;;;;;;1.30;0.10;;;;;;;;;;5071488;28;20085;-74
2021/05/13 14:09:56;;;;;;;0.30;0.30;;;;;;;;;;5071995;28;20031;-73
2021/05/13 14:12:22;;;;;;;0.10;0.10;;;;;;;;;;5070415;28;20032;-73
2021/05/13 14:14:51;;;;;;;0.35;0.35;;;;;;;;;;5071716;28;20033;-73
2021/05/13 14:17:20;;;;;;;0.63;0.63;;;;;;;;;;5071183;28;20064;-74
2021/05/13 14:19:47;;;;;;;0.30;0.30;;;;;;;;;;5071589;28;20487;-73
2021/05/13 14:22:13;;;;;;;0.30;0.30;;;;;;;;;;5069145;28;20521;-73
2021/05/13 14:24:39;;;;;;;0.20;0.20;;;;;;;;;;5070886;28;20126;-73
2021/05/13 14:27:05;;;;;;;0.30;0.30;;;;;;;;;;5070785;28;20036;-73
2021/05/13 14:29:31;;;;;;;0.30;0.28;;;;;;;;;;5070282;28;20498;-73
2021/05/13 14:31:57;;;;;;;0.17;0.17;;;;;;;;;;5069774;28;20383;-73
2021/05/13 14:34:23;;;;;;;0.40;0.40;;;;;;;;;;5051872;28;20383;-73
2021/05/13 14:36:49;;;;;;;0.20;0.20;;;;;;;;;;5070388;28;20060;-73
2021/05/13 14:39:17;;;;;;;0.20;0.20;;;;;;;;;;5070621;28;20024;-74
2021/05/13 14:41:43;;;;;;;0.30;0.30;;;;;;;;;;5071060;28;20024;-74
2021/05/13 14:44:09;;;;;;;0.20;0.20;;;;;;;;;;5070291;28;20033;-74
2021/05/13 14:46:35;;;;;;;0.68;0.35;;;;;;;;;;5071035;28;20028;-74
2021/05/13 14:51:57;;;;;;;0.10;0.10;;;;;;;;;;5033875;28;20399;-73
2021/05/13 14:54:24;;;;;;;0.20;0.20;;;;;;;;;;5049886;28;20106;-73
2021/05/13 14:56:55;;;;;;;0.10;0.10;;;;;;;;;;5050848;28;20029;-73
2021/05/13 14:59:21;;;;;;;0.45;0.10;;;;;;;;;;5050043;28;20025;-73
2021/05/13 15:01:49;;;;;;;0.20;0.20;;;;;;;;;;5050761;28;20111;-73
2021/05/13 15:04:15;;;;;;;1.67;0.47;;;;;;;;;;5049979;28;20025;-74
2021/05/13 15:06:41;;;;;;;0.10;0.10;;;;;;;;;;5051198;28;20029;-74
2021/05/13 15:09:07;;;;;;;0.20;0.20;;;;;;;;;;5050201;28;20390;-74